createdAt,value
2019-06-10T00:00:16.370Z,21.44
2019-06-10T00:01:15.163Z,21.46
2019-06-10T00:02:15.147Z,21.46
2019-06-10T00:03:15.146Z,21.38
2019-06-10T00:04:15.140Z,21.42
2019-06-10T00:05:15.113Z,21.32
2019-06-10T00:06:15.109Z,21.42
2019-06-10T00:07:15.094Z,21.54
2019-06-10T00:08:15.087Z,21.43
2019-06-10T00:09:15.101Z,21.44
2019-06-10T00:10:15.062Z,21.40
2019-06-10T00:11:15.046Z,21.47
2019-06-10T00:12:15.036Z,21.40
2019-06-10T00:13:15.024Z,21.37
2019-06-10T00:14:15.013Z,21.42
2019-06-10T00:15:15.013Z,21.32
2019-06-10T00:16:14.997Z,21.38
2019-06-10T00:17:14.990Z,21.32
2019-06-10T00:18:33.985Z,21.28
2019-06-10T00:19:15.959Z,21.34
2019-06-10T00:20:14.961Z,21.29
2019-06-10T00:21:14.944Z,21.38
2019-06-10T00:22:14.944Z,21.32
2019-06-10T00:23:14.913Z,21.31
2019-06-10T00:24:14.903Z,21.35
2019-06-10T00:25:14.904Z,21.29
2019-06-10T00:26:14.885Z,21.27
2019-06-10T00:27:14.873Z,21.25
2019-06-10T00:28:14.865Z,21.22
2019-06-10T00:29:14.847Z,21.13
2019-06-10T00:30:14.846Z,21.17
2019-06-10T00:31:14.824Z,21.12
2019-06-10T00:32:14.817Z,21.14
2019-06-10T00:33:14.810Z,21.09
2019-06-10T00:34:14.798Z,21.07
2019-06-10T00:35:14.799Z,21.06
2019-06-10T00:36:14.768Z,21.03
2019-06-10T00:37:15.120Z,21.03
2019-06-10T00:38:14.753Z,21.06
2019-06-10T00:39:14.735Z,20.97
2019-06-10T00:40:14.733Z,21.10
2019-06-10T00:41:14.723Z,20.97
2019-06-10T00:42:15.444Z,20.99
2019-06-10T00:43:14.695Z,21.01
2019-06-10T00:44:14.693Z,20.97
2019-06-10T00:45:18.035Z,20.97
2019-06-10T00:46:14.659Z,20.97
2019-06-10T00:47:15.453Z,20.95
2019-06-10T00:48:25.073Z,20.85
2019-06-10T00:49:15.633Z,20.88
2019-06-10T00:50:14.901Z,20.85
2019-06-10T00:51:14.604Z,20.79
2019-06-10T00:52:14.607Z,20.84
2019-06-10T00:53:14.683Z,20.82
2019-06-10T00:54:15.819Z,20.84
2019-06-10T00:55:14.566Z,20.84
2019-06-10T00:56:14.591Z,20.77
2019-06-10T00:57:14.548Z,20.77
2019-06-10T00:58:14.537Z,20.72
2019-06-10T00:59:15.355Z,20.79
2019-06-10T01:00:24.910Z,20.77
2019-06-10T01:01:15.490Z,20.76
2019-06-10T01:02:14.709Z,20.72
2019-06-10T01:03:15.303Z,20.74
2019-06-10T01:04:16.355Z,20.70
2019-06-10T01:05:15.256Z,20.72
2019-06-10T01:06:15.201Z,20.72
2019-06-10T01:07:14.970Z,20.66
2019-06-10T01:08:15.804Z,20.73
2019-06-10T01:09:14.871Z,20.82
2019-06-10T01:10:14.648Z,20.73
2019-06-10T01:11:21.567Z,20.77
2019-06-10T01:12:15.380Z,20.73
2019-06-10T01:13:15.530Z,20.77
2019-06-10T01:14:15.519Z,20.76
2019-06-10T01:15:15.337Z,20.77
2019-06-10T01:16:15.565Z,20.73
2019-06-10T01:17:15.523Z,20.74
2019-06-10T01:18:31.986Z,20.76
2019-06-10T01:19:15.911Z,20.77
2019-06-10T01:20:15.966Z,20.77
2019-06-10T01:21:15.563Z,20.77
2019-06-10T01:22:15.886Z,20.76
2019-06-10T01:23:15.731Z,20.79
2019-06-10T01:24:14.848Z,20.79
2019-06-10T01:25:15.049Z,20.84
2019-06-10T01:26:16.356Z,20.79
2019-06-10T01:27:15.078Z,20.76
2019-06-10T01:28:16.832Z,20.80
2019-06-10T01:29:15.612Z,20.74
2019-06-10T01:30:20.592Z,20.74
2019-06-10T01:31:19.162Z,20.80
2019-06-10T01:32:15.181Z,20.74
2019-06-10T01:33:14.850Z,20.80
2019-06-10T01:34:15.144Z,20.74
2019-06-10T01:35:15.704Z,20.88
2019-06-10T01:36:16.474Z,20.77
2019-06-10T01:37:14.784Z,20.84
2019-06-10T01:38:16.292Z,20.73
2019-06-10T01:39:16.123Z,20.77
2019-06-10T01:40:16.360Z,20.77
2019-06-10T01:41:15.259Z,20.80
2019-06-10T01:42:15.374Z,20.80
2019-06-10T01:43:17.284Z,20.79
2019-06-10T01:44:14.757Z,20.79
2019-06-10T01:45:14.643Z,20.82
2019-06-10T01:46:14.719Z,20.77
2019-06-10T01:47:14.677Z,20.80
2019-06-10T01:48:15.287Z,20.79
2019-06-10T01:49:15.142Z,20.74
2019-06-10T01:50:15.958Z,20.74
2019-06-10T01:51:14.868Z,20.77
2019-06-10T01:52:15.191Z,20.72
2019-06-10T01:53:16.028Z,20.77
2019-06-10T01:54:15.241Z,20.74
2019-06-10T01:55:15.567Z,20.72
2019-06-10T01:56:15.430Z,20.79
2019-06-10T01:57:15.376Z,20.77
2019-06-10T01:58:16.301Z,20.74
2019-06-10T01:59:15.401Z,20.70
2019-06-10T02:00:19.701Z,20.74
2019-06-10T02:01:17.433Z,20.77
2019-06-10T02:02:16.123Z,20.72
2019-06-10T02:03:16.649Z,20.73
2019-06-10T02:04:16.067Z,20.73
2019-06-10T02:05:15.984Z,20.73
2019-06-10T02:06:17.728Z,20.72
2019-06-10T02:07:16.714Z,20.73
2019-06-10T02:08:14.967Z,20.76
2019-06-10T02:09:15.503Z,20.72
2019-06-10T02:10:16.826Z,20.70
2019-06-10T02:11:15.718Z,20.77
2019-06-10T02:12:16.314Z,20.72
2019-06-10T02:13:15.110Z,20.76
2019-06-10T02:14:16.609Z,20.77
2019-06-10T02:15:15.246Z,20.72
2019-06-10T02:16:15.513Z,20.70
2019-06-10T02:17:16.362Z,20.79
2019-06-10T02:18:15.341Z,20.72
2019-06-10T02:19:15.500Z,20.76
2019-06-10T02:20:16.605Z,20.72
2019-06-10T02:21:15.058Z,20.79
2019-06-10T02:22:16.700Z,20.73
2019-06-10T02:23:14.424Z,20.79
2019-06-10T02:24:14.795Z,20.73
2019-06-10T02:25:14.882Z,20.73
2019-06-10T02:26:15.275Z,20.77
2019-06-10T02:27:14.836Z,20.77
2019-06-10T02:28:14.885Z,20.79
2019-06-10T02:29:14.682Z,20.73
2019-06-10T02:30:26.293Z,20.77
2019-06-10T02:31:18.839Z,20.73
2019-06-10T02:32:18.581Z,20.76
2019-06-10T02:33:17.432Z,20.79
2019-06-10T02:34:18.388Z,20.77
2019-06-10T02:35:25.717Z,20.82
2019-06-10T02:36:19.353Z,20.77
2019-06-10T02:37:19.120Z,20.72
2019-06-10T02:38:21.434Z,20.69
2019-06-10T02:39:20.156Z,20.82
2019-06-10T02:40:18.509Z,20.79
2019-06-10T02:41:18.606Z,20.77
2019-06-10T02:42:17.972Z,20.79
2019-06-10T02:43:18.015Z,20.80
2019-06-10T02:44:18.918Z,20.70
2019-06-10T02:45:18.419Z,20.73
2019-06-10T02:46:17.567Z,20.67
2019-06-10T02:47:20.287Z,20.67
2019-06-10T02:48:17.924Z,20.70
2019-06-10T02:49:29.664Z,20.62
2019-06-10T02:50:18.481Z,20.62
2019-06-10T02:51:16.927Z,20.58
2019-06-10T02:52:13.952Z,20.50
2019-06-10T02:53:15.277Z,20.55
2019-06-10T02:54:16.055Z,20.50
2019-06-10T02:55:15.438Z,20.42
2019-06-10T02:56:14.930Z,20.36
2019-06-10T02:57:14.566Z,20.18
2019-06-10T02:58:13.829Z,20.05
2019-06-10T02:59:13.459Z,19.95
2019-06-10T03:00:20.920Z,19.83
2019-06-10T03:01:16.377Z,19.54
2019-06-10T03:02:13.583Z,19.54
2019-06-10T03:03:15.000Z,19.40
2019-06-10T03:04:13.799Z,19.19
2019-06-10T03:05:14.306Z,19.14
2019-06-10T03:06:14.530Z,19.00
2019-06-10T03:07:13.763Z,18.90
2019-06-10T03:08:13.409Z,18.80
2019-06-10T03:09:14.040Z,18.81
2019-06-10T03:10:13.793Z,18.82
2019-06-10T03:11:14.114Z,18.66
2019-06-10T03:12:13.057Z,18.58
2019-06-10T03:13:13.043Z,18.60
2019-06-10T03:14:13.184Z,18.57
2019-06-10T03:15:13.022Z,18.47
2019-06-10T03:16:13.239Z,18.39
2019-06-10T03:17:13.004Z,18.37
2019-06-10T03:18:13.006Z,18.42
2019-06-10T03:19:13.404Z,18.42
2019-06-10T03:20:12.964Z,18.36
2019-06-10T03:21:12.947Z,18.30
2019-06-10T03:22:13.131Z,18.29
2019-06-10T03:23:12.942Z,18.26
2019-06-10T03:24:13.258Z,18.30
2019-06-10T03:25:13.245Z,18.32
2019-06-10T03:26:12.889Z,18.32
2019-06-10T03:27:12.886Z,18.29
2019-06-10T03:28:12.881Z,18.18
2019-06-10T03:29:13.124Z,18.25
2019-06-10T03:30:19.677Z,18.23
2019-06-10T03:31:15.527Z,18.25
2019-06-10T03:32:15.202Z,18.23
2019-06-10T03:33:13.720Z,18.29
2019-06-10T03:34:14.822Z,18.25
2019-06-10T03:35:13.351Z,18.12
2019-06-10T03:36:12.779Z,18.10
2019-06-10T03:37:12.960Z,18.10
2019-06-10T03:38:12.792Z,18.21
2019-06-10T03:39:13.301Z,18.08
2019-06-10T03:40:13.157Z,18.14
2019-06-10T03:41:12.728Z,18.08
2019-06-10T03:42:12.721Z,18.25
2019-06-10T03:43:12.711Z,18.17
2019-06-10T03:44:13.316Z,18.25
2019-06-10T03:45:12.856Z,18.17
2019-06-10T03:46:13.634Z,18.17
2019-06-10T03:47:12.666Z,18.17
2019-06-10T03:48:13.114Z,18.23
2019-06-10T03:49:12.865Z,18.07
2019-06-10T03:50:13.235Z,18.20
2019-06-10T03:51:12.890Z,18.10
2019-06-10T03:52:12.998Z,18.17
2019-06-10T03:53:12.992Z,18.17
2019-06-10T03:54:13.206Z,18.07
2019-06-10T03:55:12.581Z,18.12
2019-06-10T03:56:12.956Z,18.17
2019-06-10T03:57:12.543Z,18.23
2019-06-10T03:58:12.676Z,18.17
2019-06-10T03:59:12.543Z,18.10
2019-06-10T04:00:14.069Z,18.11
2019-06-10T04:01:12.577Z,18.17
2019-06-10T04:02:12.845Z,18.21
2019-06-10T04:03:12.481Z,18.15
2019-06-10T04:04:13.087Z,18.17
2019-06-10T04:05:13.327Z,18.23
2019-06-10T04:06:13.160Z,18.12
2019-06-10T04:07:14.245Z,18.14
2019-06-10T04:08:12.610Z,18.05
2019-06-10T04:09:12.431Z,18.14
2019-06-10T04:10:12.669Z,17.97
2019-06-10T04:11:12.510Z,18.07
2019-06-10T04:12:12.601Z,18.00
2019-06-10T04:13:13.248Z,18.02
2019-06-10T04:14:13.046Z,17.97
2019-06-10T04:15:12.495Z,18.02
2019-06-10T04:16:13.103Z,17.96
2019-06-10T04:17:13.050Z,17.92
2019-06-10T04:18:12.832Z,17.99
2019-06-10T04:19:13.206Z,17.95
2019-06-10T04:20:15.352Z,17.86
2019-06-10T04:21:12.935Z,17.87
2019-06-10T04:22:13.019Z,17.90
2019-06-10T04:23:12.263Z,17.86
2019-06-10T04:24:12.874Z,17.92
2019-06-10T04:25:12.272Z,17.84
2019-06-10T04:26:12.884Z,17.84
2019-06-10T04:27:12.378Z,17.86
2019-06-10T04:28:12.603Z,17.84
2019-06-10T04:29:12.958Z,17.78
2019-06-10T04:30:13.469Z,17.78
2019-06-10T04:31:13.168Z,17.84
2019-06-10T04:32:12.321Z,17.84
2019-06-10T04:33:12.679Z,17.84
2019-06-10T04:34:12.516Z,17.89
2019-06-10T04:35:12.663Z,17.84
2019-06-10T04:36:13.471Z,17.79
2019-06-10T04:37:12.474Z,17.87
2019-06-10T04:38:13.124Z,17.84
2019-06-10T04:39:12.653Z,17.77
2019-06-10T04:40:13.357Z,17.81
2019-06-10T04:41:12.629Z,17.86
2019-06-10T04:42:13.002Z,17.86
2019-06-10T04:43:12.491Z,17.81
2019-06-10T04:44:13.162Z,17.82
2019-06-10T04:45:12.332Z,17.77
2019-06-10T04:46:12.651Z,17.86
2019-06-10T04:47:12.131Z,17.84
2019-06-10T04:48:12.436Z,17.82
2019-06-10T04:49:13.224Z,17.81
2019-06-10T04:50:24.066Z,17.78
2019-06-10T04:51:13.216Z,17.86
2019-06-10T04:52:12.291Z,17.78
2019-06-10T04:53:12.900Z,17.81
2019-06-10T04:54:13.343Z,17.79
2019-06-10T04:55:12.668Z,17.75
2019-06-10T04:56:12.349Z,17.82
2019-06-10T04:57:12.788Z,17.75
2019-06-10T04:58:12.968Z,17.72
2019-06-10T04:59:12.475Z,17.74
2019-06-10T05:00:14.558Z,17.75
2019-06-10T05:01:12.187Z,17.75
2019-06-10T05:02:12.829Z,17.70
2019-06-10T05:03:12.207Z,17.70
2019-06-10T05:04:12.574Z,17.71
2019-06-10T05:05:13.083Z,17.72
2019-06-10T05:06:12.473Z,17.68
2019-06-10T05:07:12.564Z,17.71
2019-06-10T05:08:13.110Z,17.64
2019-06-10T05:09:12.406Z,17.56
2019-06-10T05:10:12.391Z,17.55
2019-06-10T05:11:12.807Z,17.59
2019-06-10T05:12:12.103Z,17.55
2019-06-10T05:13:12.049Z,17.64
2019-06-10T05:14:13.327Z,17.52
2019-06-10T05:15:12.595Z,17.56
2019-06-10T05:16:12.547Z,17.54
2019-06-10T05:17:12.731Z,17.58
2019-06-10T05:18:13.146Z,17.62
2019-06-10T05:19:12.901Z,17.59
2019-06-10T05:20:12.563Z,17.59
2019-06-10T05:21:13.095Z,17.56
2019-06-10T05:22:12.391Z,17.58
2019-06-10T05:23:12.655Z,17.70
2019-06-10T05:24:12.487Z,17.70
2019-06-10T05:25:12.906Z,17.63
2019-06-10T05:26:13.398Z,17.66
2019-06-10T05:27:12.505Z,17.71
2019-06-10T05:28:12.278Z,17.74
2019-06-10T05:29:12.098Z,17.78
2019-06-10T05:30:12.255Z,17.79
2019-06-10T05:31:12.969Z,17.87
2019-06-10T05:32:12.768Z,17.89
2019-06-10T05:33:13.476Z,17.78
2019-06-10T05:34:13.153Z,17.89
2019-06-10T05:35:12.370Z,17.86
2019-06-10T05:36:13.040Z,17.87
2019-06-10T05:37:12.137Z,17.87
2019-06-10T05:38:13.006Z,17.95
2019-06-10T05:39:12.170Z,18.07
2019-06-10T05:40:12.721Z,18.00
2019-06-10T05:41:13.333Z,18.03
2019-06-10T05:42:12.762Z,18.15
2019-06-10T05:43:13.108Z,18.14
2019-06-10T05:44:13.505Z,18.20
2019-06-10T05:45:12.277Z,18.17
2019-06-10T05:46:13.428Z,18.10
2019-06-10T05:47:12.677Z,18.26
2019-06-10T05:48:16.254Z,18.11
2019-06-10T05:49:12.631Z,18.30
2019-06-10T05:50:12.881Z,18.26
2019-06-10T05:51:12.404Z,18.35
2019-06-10T05:52:12.621Z,18.30
2019-06-10T05:53:13.100Z,18.35
2019-06-10T05:54:12.811Z,18.35
2019-06-10T05:55:12.138Z,18.41
2019-06-10T05:56:12.843Z,18.39
2019-06-10T05:57:12.041Z,18.52
2019-06-10T05:58:12.913Z,18.54
2019-06-10T05:59:12.060Z,18.45
2019-06-10T06:00:14.595Z,18.41
2019-06-10T06:01:13.277Z,18.41
2019-06-10T06:02:12.894Z,18.45
2019-06-10T06:03:12.067Z,18.48
2019-06-10T06:04:12.661Z,18.39
2019-06-10T06:05:12.853Z,18.54
2019-06-10T06:06:12.478Z,18.57
2019-06-10T06:07:12.905Z,18.55
2019-06-10T06:08:12.556Z,18.63
2019-06-10T06:09:13.002Z,18.60
2019-06-10T06:10:12.979Z,18.63
2019-06-10T06:11:12.759Z,18.60
2019-06-10T06:12:14.072Z,18.70
2019-06-10T06:13:12.672Z,18.81
2019-06-10T06:14:13.253Z,18.78
2019-06-10T06:15:12.881Z,18.80
2019-06-10T06:16:12.596Z,18.75
2019-06-10T06:17:12.705Z,18.76
2019-06-10T06:18:13.985Z,18.73
2019-06-10T06:19:12.575Z,18.85
2019-06-10T06:20:13.104Z,18.80
2019-06-10T06:21:22.540Z,18.78
2019-06-10T06:22:12.985Z,18.80
2019-06-10T06:23:12.283Z,18.76
2019-06-10T06:24:12.848Z,18.80
2019-06-10T06:25:14.657Z,18.81
2019-06-10T06:26:16.129Z,18.80
2019-06-10T06:27:13.096Z,18.84
2019-06-10T06:28:12.975Z,18.91
2019-06-10T06:29:13.022Z,18.87
2019-06-10T06:30:17.501Z,18.91
2019-06-10T06:31:12.760Z,18.91
2019-06-10T06:32:13.052Z,19.02
2019-06-10T06:33:13.350Z,19.04
2019-06-10T06:34:13.380Z,19.02
2019-06-10T06:35:12.637Z,19.14
2019-06-10T06:36:12.591Z,19.16
2019-06-10T06:37:12.746Z,19.18
2019-06-10T06:38:12.885Z,19.22
2019-06-10T06:39:12.848Z,19.26
2019-06-10T06:40:13.081Z,19.37
2019-06-10T06:41:13.422Z,19.39
2019-06-10T06:42:12.671Z,19.36
2019-06-10T06:43:12.086Z,19.41
2019-06-10T06:44:12.742Z,19.51
2019-06-10T06:45:12.203Z,19.48
2019-06-10T06:46:12.806Z,19.47
2019-06-10T06:47:13.202Z,19.50
2019-06-10T06:48:12.300Z,19.56
2019-06-10T06:49:12.796Z,19.56
2019-06-10T06:50:12.910Z,19.59
2019-06-10T06:51:12.976Z,19.61
2019-06-10T06:52:12.666Z,19.56
2019-06-10T06:53:21.341Z,19.59
2019-06-10T06:54:12.523Z,19.55
2019-06-10T06:55:12.687Z,19.59
2019-06-10T06:56:12.571Z,19.55
2019-06-10T06:57:12.911Z,19.59
2019-06-10T06:58:12.574Z,19.56
2019-06-10T06:59:12.959Z,19.58
2019-06-10T07:00:35.338Z,19.58
2019-06-10T07:01:14.361Z,19.58
2019-06-10T07:02:12.332Z,19.58
2019-06-10T07:03:12.511Z,19.58
2019-06-10T07:04:12.852Z,19.74
2019-06-10T07:05:12.553Z,19.71
2019-06-10T07:06:13.055Z,19.76
2019-06-10T07:07:10.428Z,19.66
2019-06-10T07:08:12.938Z,19.73
2019-06-10T07:09:10.411Z,19.76
2019-06-10T07:10:12.238Z,19.86
2019-06-10T07:11:10.386Z,19.87
2019-06-10T07:12:12.924Z,19.77
2019-06-10T07:13:12.770Z,19.86
2019-06-10T07:14:12.868Z,19.80
2019-06-10T07:15:12.171Z,19.81
2019-06-10T07:16:13.011Z,19.84
2019-06-10T07:17:12.582Z,19.84
2019-06-10T07:18:12.881Z,19.88
2019-06-10T07:19:10.309Z,19.95
2019-06-10T07:20:12.521Z,20.03
2019-06-10T07:21:10.277Z,19.99
2019-06-10T07:22:13.658Z,20.08
2019-06-10T07:23:12.986Z,20.11
2019-06-10T07:24:12.501Z,20.11
2019-06-10T07:25:12.388Z,20.28
2019-06-10T07:26:12.580Z,20.21
2019-06-10T07:27:10.208Z,20.20
2019-06-10T07:28:12.450Z,20.29
2019-06-10T07:29:10.183Z,20.29
2019-06-10T07:30:14.652Z,20.23
2019-06-10T07:31:20.971Z,20.26
2019-06-10T07:32:12.406Z,20.33
2019-06-10T07:33:12.110Z,20.31
2019-06-10T07:34:10.130Z,20.26
2019-06-10T07:35:10.116Z,20.26
2019-06-10T07:36:12.950Z,20.32
2019-06-10T07:37:10.094Z,20.26
2019-06-10T07:38:12.214Z,20.18
2019-06-10T07:39:10.082Z,20.26
2019-06-10T07:40:10.060Z,20.26
2019-06-10T07:41:12.416Z,20.28
2019-06-10T07:42:10.046Z,20.24
2019-06-10T07:43:10.041Z,20.36
2019-06-10T07:44:12.300Z,20.36
2019-06-10T07:45:10.022Z,20.36
2019-06-10T07:46:12.993Z,20.41
2019-06-10T07:47:09.993Z,20.51
2019-06-10T07:48:12.044Z,20.48
2019-06-10T07:49:09.963Z,20.42
2019-06-10T07:50:12.032Z,20.47
2019-06-10T07:51:09.949Z,20.39
2019-06-10T07:52:18.541Z,20.47
2019-06-10T07:53:12.804Z,20.43
2019-06-10T07:54:12.280Z,20.50
2019-06-10T07:55:09.895Z,20.51
2019-06-10T07:56:12.627Z,20.59
2019-06-10T07:57:09.885Z,20.58
2019-06-10T07:58:09.876Z,20.58
2019-06-10T07:59:09.851Z,20.69
2019-06-10T08:00:12.111Z,20.69
2019-06-10T08:01:09.830Z,20.74
2019-06-10T08:02:12.266Z,20.79
2019-06-10T08:03:09.812Z,20.82
2019-06-10T08:04:11.995Z,20.76
2019-06-10T08:05:09.791Z,20.79
2019-06-10T08:06:12.443Z,20.82
2019-06-10T08:07:12.388Z,20.84
2019-06-10T08:08:09.759Z,20.85
2019-06-10T08:09:09.754Z,20.85
2019-06-10T08:10:09.740Z,20.95
2019-06-10T08:11:09.722Z,21.01
2019-06-10T08:12:09.716Z,20.99
2019-06-10T08:13:11.920Z,21.03
2019-06-10T08:14:09.695Z,21.17
2019-06-10T08:15:09.673Z,21.13
2019-06-10T08:16:09.679Z,21.27
2019-06-10T08:17:09.661Z,21.34
2019-06-10T08:18:09.639Z,21.38
2019-06-10T08:19:21.915Z,21.38
2019-06-10T08:20:13.147Z,21.43
2019-06-10T08:21:12.093Z,21.56
2019-06-10T08:22:09.601Z,21.47
2019-06-10T08:23:09.594Z,21.58
2019-06-10T08:24:09.587Z,21.65
2019-06-10T08:25:09.564Z,21.79
2019-06-10T08:26:09.559Z,21.79
2019-06-10T08:27:11.946Z,21.82
2019-06-10T08:28:09.539Z,21.79
2019-06-10T08:29:09.541Z,21.79
2019-06-10T08:30:21.611Z,21.84
2019-06-10T08:31:12.402Z,21.77
2019-06-10T08:32:09.488Z,21.92
2019-06-10T08:33:09.483Z,21.84
2019-06-10T08:34:09.505Z,21.86
2019-06-10T08:35:09.457Z,21.86
2019-06-10T08:36:09.450Z,21.94
2019-06-10T08:37:09.438Z,21.91
2019-06-10T08:38:09.422Z,21.96
2019-06-10T08:39:12.022Z,21.88
2019-06-10T08:40:12.436Z,21.91
2019-06-10T08:41:09.393Z,21.99
2019-06-10T08:42:09.388Z,22.05
2019-06-10T08:43:09.364Z,22.05
2019-06-10T08:44:09.368Z,22.06
2019-06-10T08:45:09.341Z,22.12
2019-06-10T08:46:09.330Z,22.17
2019-06-10T08:47:09.326Z,22.22
2019-06-10T08:48:09.310Z,22.24
2019-06-10T08:49:09.319Z,22.15
2019-06-10T08:50:09.294Z,22.28
2019-06-10T08:51:09.275Z,22.27
2019-06-10T08:52:09.274Z,22.24
2019-06-10T08:53:14.741Z,22.25
2019-06-10T08:54:12.653Z,22.25
2019-06-10T08:55:09.232Z,22.20
2019-06-10T08:56:09.220Z,22.24
2019-06-10T08:57:09.213Z,22.24
2019-06-10T08:58:09.198Z,22.33
2019-06-10T08:59:09.207Z,22.24
2019-06-10T09:00:12.495Z,22.25
2019-06-10T09:01:12.679Z,22.21
2019-06-10T09:02:09.153Z,22.24
2019-06-10T09:03:09.215Z,22.21
2019-06-10T09:04:09.154Z,22.36
2019-06-10T09:05:09.118Z,22.33
2019-06-10T09:06:09.109Z,22.33
2019-06-10T09:07:09.099Z,22.33
2019-06-10T09:08:09.086Z,22.45
2019-06-10T09:09:09.084Z,22.46
2019-06-10T09:10:09.082Z,22.52
2019-06-10T09:11:09.548Z,22.45
2019-06-10T09:12:09.045Z,22.51
2019-06-10T09:13:09.029Z,22.49
2019-06-10T09:14:09.018Z,22.64
2019-06-10T09:15:09.026Z,22.57
2019-06-10T09:16:14.932Z,22.64
2019-06-10T09:17:12.339Z,22.64
2019-06-10T09:18:08.986Z,22.64
2019-06-10T09:19:08.964Z,22.62
2019-06-10T09:20:08.965Z,22.67
2019-06-10T09:21:08.942Z,22.62
2019-06-10T09:22:08.939Z,22.58
2019-06-10T09:23:19.207Z,22.70
2019-06-10T09:24:09.914Z,22.68
2019-06-10T09:25:08.921Z,22.76
2019-06-10T09:26:08.888Z,22.70
2019-06-10T09:27:08.887Z,22.70
2019-06-10T09:28:08.878Z,22.79
2019-06-10T09:29:08.864Z,22.82
2019-06-10T09:30:08.854Z,22.85
2019-06-10T09:31:08.839Z,22.95
2019-06-10T09:32:08.823Z,22.98
2019-06-10T09:33:08.818Z,23.01
2019-06-10T09:34:08.802Z,23.04
2019-06-10T09:35:08.802Z,23.07
2019-06-10T09:36:08.786Z,23.19
2019-06-10T09:37:08.778Z,23.13
2019-06-10T09:38:08.759Z,23.19
2019-06-10T09:39:08.759Z,23.25
2019-06-10T09:40:08.759Z,23.27
2019-06-10T09:41:08.726Z,23.33
2019-06-10T09:42:08.828Z,23.33
2019-06-10T09:43:08.710Z,23.33
2019-06-10T09:44:08.698Z,23.40
2019-06-10T09:45:08.690Z,23.46
2019-06-10T09:46:08.682Z,23.51
2019-06-10T09:47:08.669Z,23.38
2019-06-10T09:48:08.657Z,23.50
2019-06-10T09:49:08.643Z,23.36
2019-06-10T09:50:08.649Z,23.47
2019-06-10T09:51:08.628Z,23.47
2019-06-10T09:52:08.618Z,23.43
2019-06-10T09:53:08.597Z,23.39
2019-06-10T09:54:08.586Z,23.36
2019-06-10T09:55:08.584Z,23.36
2019-06-10T09:56:08.562Z,23.43
2019-06-10T09:57:08.560Z,23.50
2019-06-10T09:58:08.546Z,23.58
2019-06-10T09:59:08.526Z,23.69
2019-06-10T10:00:08.547Z,23.72
2019-06-10T10:01:08.505Z,23.79
2019-06-10T10:02:08.506Z,23.78
2019-06-10T10:03:08.488Z,23.76
2019-06-10T10:04:08.471Z,23.83
2019-06-10T10:05:08.458Z,23.80
2019-06-10T10:06:15.040Z,23.88
2019-06-10T10:07:12.028Z,23.93
2019-06-10T10:08:08.425Z,23.87
2019-06-10T10:09:08.416Z,23.88
2019-06-10T10:10:08.408Z,23.91
2019-06-10T10:11:08.414Z,23.80
2019-06-10T10:12:08.392Z,23.87
2019-06-10T10:13:08.376Z,23.84
2019-06-10T10:14:10.534Z,23.90
2019-06-10T10:15:26.434Z,23.83
2019-06-10T10:16:09.348Z,23.85
2019-06-10T10:17:08.325Z,23.85
2019-06-10T10:18:08.314Z,23.84
2019-06-10T10:19:08.303Z,23.88
2019-06-10T10:20:08.303Z,23.87
2019-06-10T10:21:08.301Z,24.00
2019-06-10T10:22:11.091Z,24.03
2019-06-10T10:23:09.261Z,24.02
2019-06-10T10:24:12.292Z,24.18
2019-06-10T10:25:09.247Z,24.43
2019-06-10T10:26:08.236Z,24.62
2019-06-10T10:27:09.497Z,24.83
2019-06-10T10:28:08.211Z,24.93
2019-06-10T10:29:08.198Z,25.17
2019-06-10T10:30:08.184Z,25.30
2019-06-10T10:31:08.193Z,25.51
2019-06-10T10:32:08.169Z,25.77
2019-06-10T10:33:08.158Z,25.95
2019-06-10T10:34:08.143Z,26.25
2019-06-10T10:35:08.145Z,26.21
2019-06-10T10:36:08.136Z,26.13
2019-06-10T10:37:08.111Z,25.97
2019-06-10T10:38:08.104Z,25.80
2019-06-10T10:39:08.086Z,25.65
2019-06-10T10:40:08.082Z,25.61
2019-06-10T10:41:08.083Z,25.43
2019-06-10T10:42:08.062Z,25.45
2019-06-10T10:43:23.449Z,25.36
2019-06-10T10:44:09.030Z,25.21
2019-06-10T10:45:08.025Z,25.15
2019-06-10T10:46:08.024Z,25.10
2019-06-10T10:47:08.003Z,25.13
2019-06-10T10:48:07.987Z,25.02
2019-06-10T10:49:07.984Z,24.91
2019-06-10T10:50:07.971Z,24.90
2019-06-10T10:51:07.970Z,24.83
2019-06-10T10:52:07.950Z,24.85
2019-06-10T10:53:07.939Z,24.76
2019-06-10T10:54:22.352Z,24.71
2019-06-10T10:55:08.920Z,24.76
2019-06-10T10:56:07.930Z,24.65
2019-06-10T10:57:07.888Z,24.71
2019-06-10T10:58:07.886Z,24.61
2019-06-10T10:59:07.890Z,24.73
2019-06-10T11:00:07.863Z,24.64
2019-06-10T11:01:07.853Z,24.73
2019-06-10T11:02:07.844Z,24.84
2019-06-10T11:03:07.824Z,24.83
2019-06-10T11:04:07.819Z,24.91
2019-06-10T11:05:07.813Z,24.93
2019-06-10T11:06:07.800Z,24.83
2019-06-10T11:07:07.806Z,24.91
2019-06-10T11:08:07.776Z,24.91
2019-06-10T11:09:07.760Z,24.93
2019-06-10T11:10:07.762Z,25.08
2019-06-10T11:11:07.745Z,25.18
2019-06-10T11:12:07.742Z,25.23
2019-06-10T11:13:07.732Z,25.24
2019-06-10T11:14:07.706Z,25.27
2019-06-10T11:15:07.699Z,25.25
2019-06-10T11:16:07.685Z,25.27
2019-06-10T11:17:08.097Z,25.25
2019-06-10T11:18:07.667Z,25.17
2019-06-10T11:19:07.660Z,25.15
2019-06-10T11:20:07.639Z,25.03
2019-06-10T11:21:07.695Z,25.15
2019-06-10T11:22:07.634Z,25.06
2019-06-10T11:23:07.614Z,25.03
2019-06-10T11:24:07.603Z,24.98
2019-06-10T11:25:07.596Z,24.93
2019-06-10T11:26:07.583Z,25.08
2019-06-10T11:27:07.578Z,24.95
2019-06-10T11:28:07.552Z,25.03
2019-06-10T11:29:07.548Z,25.02
2019-06-10T11:30:07.531Z,25.00
2019-06-10T11:31:07.522Z,25.02
2019-06-10T11:32:07.516Z,25.06
2019-06-10T11:33:07.500Z,25.05
2019-06-10T11:34:07.494Z,25.20
2019-06-10T11:35:07.488Z,25.17
2019-06-10T11:36:07.473Z,25.20
2019-06-10T11:37:07.476Z,25.21
2019-06-10T11:38:07.444Z,25.24
2019-06-10T11:39:07.437Z,25.38
2019-06-10T11:40:07.424Z,25.46
2019-06-10T11:41:07.630Z,25.54
2019-06-10T11:42:07.413Z,25.77
2019-06-10T11:43:07.391Z,25.97
2019-06-10T11:44:07.378Z,26.29
2019-06-10T11:45:07.389Z,26.43
2019-06-10T11:46:08.032Z,26.48
2019-06-10T11:47:07.360Z,26.69
2019-06-10T11:48:07.343Z,26.97
2019-06-10T11:49:07.324Z,27.07
2019-06-10T11:50:07.337Z,27.13
2019-06-10T11:51:07.319Z,27.04
2019-06-10T11:52:07.323Z,26.92
2019-06-10T11:53:07.281Z,26.73
2019-06-10T11:54:07.277Z,26.67
2019-06-10T11:55:15.169Z,26.50
2019-06-10T11:56:08.252Z,26.32
2019-06-10T11:57:07.247Z,26.18
2019-06-10T11:58:07.244Z,26.21
2019-06-10T11:59:09.640Z,26.12
2019-06-10T12:00:13.941Z,26.05
2019-06-10T12:01:08.194Z,26.12
2019-06-10T12:02:07.189Z,26.07
2019-06-10T12:03:07.197Z,26.06
2019-06-10T12:04:07.165Z,26.18
2019-06-10T12:05:07.155Z,26.35
2019-06-10T12:06:07.140Z,26.44
2019-06-10T12:07:07.140Z,26.52
2019-06-10T12:08:07.141Z,26.62
2019-06-10T12:09:07.127Z,26.88
2019-06-10T12:10:07.105Z,27.12
2019-06-10T12:11:07.095Z,27.39
2019-06-10T12:12:07.076Z,27.34
2019-06-10T12:13:07.534Z,27.25
2019-06-10T12:14:07.060Z,27.10
2019-06-10T12:15:07.046Z,27.04
2019-06-10T12:17:05.195Z,26.92
2019-06-10T12:17:30.851Z,26.94
2019-06-10T12:18:09.313Z,26.75
2019-06-10T12:19:07.001Z,26.77
2019-06-10T12:20:06.990Z,26.75
2019-06-10T12:21:06.990Z,26.70
2019-06-10T12:22:07.696Z,26.69
2019-06-10T12:23:06.969Z,26.63
2019-06-10T12:24:06.948Z,26.63
2019-06-10T12:25:28.491Z,26.58
2019-06-10T12:26:07.930Z,26.51
2019-06-10T12:27:06.922Z,26.57
2019-06-10T12:28:07.946Z,26.63
2019-06-10T12:29:06.903Z,26.88
2019-06-10T12:30:06.899Z,27.00
2019-06-10T12:31:07.611Z,26.99
2019-06-10T12:32:07.754Z,26.89
2019-06-10T12:33:06.870Z,26.82
2019-06-10T12:34:06.843Z,26.70
2019-06-10T12:35:06.838Z,26.62
2019-06-10T12:36:07.581Z,26.55
2019-06-10T12:37:11.965Z,26.51
2019-06-10T12:38:07.825Z,26.36
2019-06-10T12:39:10.488Z,26.36
2019-06-10T12:40:07.779Z,26.36
2019-06-10T12:41:09.956Z,26.29
2019-06-10T12:42:06.876Z,26.20
2019-06-10T12:43:07.515Z,26.32
2019-06-10T12:44:06.736Z,26.28
2019-06-10T12:45:08.574Z,26.30
2019-06-10T12:46:06.729Z,26.35
2019-06-10T12:47:08.300Z,26.30
2019-06-10T12:48:07.070Z,26.30
2019-06-10T12:49:08.756Z,26.26
2019-06-10T12:50:06.677Z,26.17
2019-06-10T12:51:09.510Z,26.18
2019-06-10T12:52:07.528Z,26.28